Time;durP1;ratioP1;P1;durP2;ratioP2;P2;SDS_P1;SDS_P2;PMS_P1;PMS_P2;Temp;Humidity;BMP_temperature;BMP_pressure;BME280_temperature;BME280_humidity;BME280_pressure;Samples;Min_cycle;Max_cycle;Signal;HPM_P1;HPM_P2
2022/12/24 00:02:00;;;;;;;1.25;0.50;;;;;;;12.26;38.70;98800.38;6013682;23;20126;-93
2022/12/24 00:04:26;;;;;;;1.02;0.30;;;;;;;12.28;39.02;98801.78;6015017;23;20026;-93
2022/12/24 00:06:51;;;;;;;0.50;0.50;;;;;;;12.30;39.04;98814.97;6015407;23;20010;-93
2022/12/24 00:09:20;;;;;;;0.77;0.40;;;;;;;12.30;38.63;98814.97;6015078;23;20101;-92
2022/12/24 00:11:46;;;;;;;0.30;0.30;;;;;;;12.30;38.83;98820.31;6015533;23;20019;-93
2022/12/24 00:14:11;;;;;;;1.38;0.50;;;;;;;12.30;38.91;98812.28;6015528;23;20511;-93
2022/12/24 00:16:37;;;;;;;0.60;0.60;;;;;;;12.28;38.87;98833.09;6015121;23;20007;-93
2022/12/24 00:19:02;;;;;;;0.38;0.38;;;;;;;12.33;38.77;98819.81;6015268;23;20038;-93
2022/12/24 00:21:28;;;;;;;0.43;0.43;;;;;;;12.36;38.70;98827.38;6014592;23;20021;-94
2022/12/24 00:23:54;;;;;;;0.35;0.35;;;;;;;12.16;38.60;98809.84;6014786;23;20011;-93
2022/12/24 00:26:20;;;;;;;0.98;0.63;;;;;;;12.26;38.87;98824.50;6014904;23;20007;-92
2022/12/24 00:28:45;;;;;;;1.00;0.40;;;;;;;12.31;38.90;98835.31;6014791;23;20017;-93
2022/12/24 00:31:15;;;;;;;0.55;0.32;;;;;;;12.29;38.70;98832.88;6014959;23;20396;-93
2022/12/24 00:33:40;;;;;;;1.00;0.43;;;;;;;12.32;38.73;98843.13;6015638;23;20539;-93
2022/12/24 00:36:06;;;;;;;0.40;0.40;;;;;;;12.27;38.77;98836.84;6014832;23;20007;-93
2022/12/24 00:38:32;;;;;;;0.47;0.40;;;;;;;12.26;38.65;98832.53;6014948;23;20007;-93
2022/12/24 00:41:00;;;;;;;0.30;0.30;;;;;;;12.37;38.79;98855.81;6038960;23;20019;-93
2022/12/24 00:43:26;;;;;;;0.60;0.45;;;;;;;12.17;38.76;98832.88;6015200;23;20039;-93
2022/12/24 00:45:51;;;;;;;0.60;0.50;;;;;;;12.23;38.81;98846.38;6014948;23;20015;-93
2022/12/24 00:48:17;;;;;;;0.55;0.43;;;;;;;12.27;38.68;98856.41;6015184;23;20106;-93
2022/12/24 00:50:43;;;;;;;0.50;0.43;;;;;;;12.27;38.78;98858.28;6015288;23;20007;-93
2022/12/24 00:53:08;;;;;;;1.42;0.57;;;;;;;12.21;38.81;98860.00;6015673;23;20030;-93
2022/12/24 00:55:34;;;;;;;0.82;0.50;;;;;;;12.19;39.00;98854.91;6015277;23;20007;-93
2022/12/24 00:58:00;;;;;;;0.52;0.35;;;;;;;12.30;38.73;98876.56;6038975;23;20010;-93
2022/12/24 01:00:25;;;;;;;0.98;0.38;;;;;;;12.28;38.85;98874.13;6015396;23;20061;-93
2022/12/24 01:02:51;;;;;;;0.50;0.40;;;;;;;12.29;38.85;98869.56;6037477;23;20516;-93
2022/12/24 01:05:23;;;;;;;0.60;0.30;;;;;;;12.32;38.74;98879.81;6015186;23;20050;-93
2022/12/24 01:07:49;;;;;;;0.40;0.40;;;;;;;12.31;38.63;98870.13;6015701;23;20329;-93
2022/12/24 01:10:17;;;;;;;0.98;0.38;;;;;;;12.25;38.86;98873.78;6038814;23;20090;-92
2022/12/24 01:12:42;;;;;;;1.17;0.45;;;;;;;12.29;38.98;98885.63;6015034;23;20011;-93
2022/12/24 01:15:09;;;;;;;0.30;0.30;;;;;;;12.24;38.79;98882.84;6038202;23;20448;-93
2022/12/24 01:17:34;;;;;;;0.40;0.38;;;;;;;12.33;38.77;98887.63;6013968;23;20007;-93
2022/12/24 01:20:00;;;;;;;0.57;0.43;;;;;;;12.23;38.76;98865.13;6014598;23;20041;-93
2022/12/24 01:22:26;;;;;;;0.50;0.50;;;;;;;12.28;38.72;98884.00;6014450;23;20011;-93
2022/12/24 01:24:52;;;;;;;1.42;0.47;;;;;;;12.25;38.48;98889.84;6038088;23;20348;-93
2022/12/24 01:27:20;;;;;;;0.65;0.50;;;;;;;12.33;38.53;98897.50;6014249;23;20021;-92
2022/12/24 01:29:46;;;;;;;0.95;0.40;;;;;;;12.28;38.59;98875.97;6037833;23;20007;-92
2022/12/24 01:32:12;;;;;;;0.60;0.50;;;;;;;12.32;38.52;98896.69;6014390;23;20066;-92
2022/12/24 01:34:38;;;;;;;0.38;0.35;;;;;;;12.30;38.43;98892.63;6014264;23;20010;-93
2022/12/24 01:37:03;;;;;;;0.55;0.40;;;;;;;12.32;38.56;98885.19;6014258;23;20007;-93
2022/12/24 01:39:32;;;;;;;1.45;0.68;;;;;;;12.34;38.20;98883.06;6013588;23;20511;-94
2022/12/24 01:44:43;;;;;;;1.23;0.38;;;;;;;12.27;38.44;98887.75;6042042;23;20034;-93
2022/12/24 01:47:22;;;;;;;0.50;0.43;;;;;;;12.31;38.61;98900.41;6014114;23;20038;-93
2022/12/24 01:50:02;;;;;;;0.52;0.30;;;;;;;12.35;38.43;98908.81;6037602;23;20074;-92
2022/12/24 01:52:33;;;;;;;0.40;0.40;;;;;;;12.38;38.38;98914.53;6014434;23;20066;-92
2022/12/24 01:54:59;;;;;;;0.63;0.40;;;;;;;12.39;38.32;98913.44;6014615;23;20042;-93
2022/12/24 01:57:37;;;;;;;0.80;0.40;;;;;;;12.40;38.47;98914.28;6037338;23;20031;-93
2022/12/24 02:00:11;;;;;;;0.70;0.35;;;;;;;12.25;38.53;98892.53;6014671;23;20010;-92
2022/12/24 02:02:38;;;;;;;0.50;0.45;;;;;;;12.41;38.18;98905.19;6038556;23;20015;-92
2022/12/24 02:05:45;;;;;;;1.55;0.40;;;;;;;12.44;38.24;98911.94;6014446;23;20484;-92
2022/12/24 02:08:11;;;;;;;0.70;0.40;;;;;;;12.33;38.20;98906.38;5974609;24;20560;-92
2022/12/24 02:10:36;;;;;;;0.65;0.30;;;;;;;12.31;38.41;98907.63;5974963;24;20041;-92
2022/12/24 02:13:02;;;;;;;0.52;0.43;;;;;;;12.37;38.20;98925.47;5984713;23;20018;-92
2022/12/24 02:15:28;;;;;;;0.57;0.50;;;;;;;12.38;38.42;98921.72;6013214;23;20066;-92
2022/12/24 02:18:11;;;;;;;0.43;0.43;;;;;;;12.37;38.23;98925.47;6037451;23;20019;-91
2022/12/24 02:21:14;;;;;;;0.52;0.50;;;;;;;12.35;38.18;98922.22;6014680;23;20021;-92
2022/12/24 02:23:55;;;;;;;0.50;0.50;;;;;;;12.43;38.04;98943.25;6040509;23;20018;-92
2022/12/24 02:26:39;;;;;;;0.30;0.30;;;;;;;12.40;38.24;98943.75;6039075;23;20033;-93
2022/12/24 02:29:19;;;;;;;0.40;0.35;;;;;;;12.43;38.19;98945.13;6061616;23;20340;-92
2022/12/24 02:31:48;;;;;;;0.45;0.30;;;;;;;12.46;38.08;98952.72;6037950;23;20018;-93
2022/12/24 02:34:27;;;;;;;0.75;0.40;;;;;;;12.48;37.82;98959.44;6061301;23;20003;-92
2022/12/24 02:36:57;;;;;;;0.45;0.45;;;;;;;12.37;37.97;98936.19;6014622;23;20046;-93
2022/12/24 02:39:48;;;;;;;1.33;0.50;;;;;;;12.34;38.15;98936.66;6039297;23;20007;-92
2022/12/24 02:42:30;;;;;;;0.45;0.30;;;;;;;12.42;37.88;98955.06;6042648;23;20521;-91
2022/12/24 02:45:00;;;;;;;1.38;0.60;;;;;;;12.30;37.98;98933.63;6041719;23;20373;-92
2022/12/24 02:47:29;;;;;;;0.52;0.50;;;;;;;12.03;38.04;98901.94;6016059;23;20098;-91
2022/12/24 02:49:55;;;;;;;0.70;0.40;;;;;;;12.24;38.06;98923.03;6016393;23;20075;-92
2022/12/24 02:52:33;;;;;;;0.57;0.40;;;;;;;12.34;37.86;98944.69;6040056;23;20042;-92
2022/12/24 02:55:23;;;;;;;1.15;0.40;;;;;;;12.44;37.84;98963.66;6039957;23;20015;-92
2022/12/24 02:57:57;;;;;;;0.80;0.30;;;;;;;12.50;37.95;98962.72;6063196;23;20003;-91
2022/12/24 03:00:23;;;;;;;0.85;0.35;;;;;;;12.48;38.00;98953.28;6063477;23;20011;-92
2022/12/24 03:03:08;;;;;;;1.05;0.40;;;;;;;12.50;37.76;98962.72;6016379;23;20042;-92
2022/12/24 03:05:50;;;;;;;0.47;0.45;;;;;;;12.46;37.60;98958.88;6064228;23;20019;-92
2022/12/24 03:08:28;;;;;;;0.35;0.35;;;;;;;12.42;37.85;98956.91;6040005;23;20006;-92
2022/12/24 03:11:15;;;;;;;0.47;0.40;;;;;;;12.43;37.84;98958.53;6017668;23;20006;-92
2022/12/24 03:13:41;;;;;;;0.60;0.40;;;;;;;12.45;37.77;98969.81;6042757;23;20011;-93
2022/12/24 03:16:09;;;;;;;0.77;0.40;;;;;;;12.49;37.76;98976.38;6016113;23;20021;-92
2022/12/24 03:18:36;;;;;;;0.50;0.40;;;;;;;12.48;38.00;98967.50;6016510;23;20014;-91
2022/12/24 03:21:26;;;;;;;0.77;0.40;;;;;;;12.44;37.89;98979.75;6016006;23;20364;-92
2022/12/24 03:23:51;;;;;;;0.65;0.40;;;;;;;12.35;37.75;98957.03;6017519;23;20011;-93
2022/12/24 03:26:18;;;;;;;0.57;0.38;;;;;;;12.32;37.67;98954.81;6015404;23;20018;-92
2022/12/24 03:28:43;;;;;;;0.75;0.57;;;;;;;12.39;37.83;98966.22;6015062;23;20343;-91
2022/12/24 03:31:09;;;;;;;0.50;0.40;;;;;;;12.39;37.65;98971.59;6038999;23;20069;-92
2022/12/24 03:33:35;;;;;;;0.75;0.40;;;;;;;12.36;37.69;98967.50;6015192;23;20014;-90
2022/12/24 03:36:01;;;;;;;0.57;0.50;;;;;;;12.40;37.65;98973.22;6062361;23;20401;-90
2022/12/24 03:38:27;;;;;;;0.40;0.40;;;;;;;12.48;37.54;98990.81;6064191;23;20014;-90
2022/12/24 03:40:55;;;;;;;0.65;0.40;;;;;;;12.34;37.59;98971.47;6039115;23;20010;-90
2022/12/24 03:43:21;;;;;;;0.80;0.38;;;;;;;12.40;37.75;98991.97;6014257;23;20010;-91
2022/12/24 03:45:47;;;;;;;0.60;0.45;;;;;;;12.46;37.68;99009.78;6062439;23;20049;-90
2022/12/24 03:48:12;;;;;;;0.82;0.35;;;;;;;12.45;37.73;99001.97;6038346;23;20069;-90
2022/12/24 03:50:38;;;;;;;0.63;0.55;;;;;;;12.40;37.66;99000.81;6062134;23;20330;-90
2022/12/24 03:53:04;;;;;;;0.45;0.40;;;;;;;12.46;37.38;99008.97;6038754;23;20010;-90
2022/12/24 03:55:29;;;;;;;0.93;0.40;;;;;;;12.32;37.51;98985.09;6037770;23;20011;-90
2022/12/24 03:57:58;;;;;;;0.40;0.40;;;;;;;12.38;37.65;98996.75;6038469;23;20006;-91
2022/12/24 04:00:24;;;;;;;0.57;0.50;;;;;;;12.47;37.59;99011.44;6015784;23;20022;-91
2022/12/24 04:02:49;;;;;;;1.17;0.50;;;;;;;12.44;37.80;99017.25;6038364;23;20050;-91
2022/12/24 04:05:18;;;;;;;0.50;0.40;;;;;;;12.42;37.70;99005.97;6038676;23;20034;-91
2022/12/24 04:07:43;;;;;;;1.15;0.45;;;;;;;12.45;37.79;99008.16;6015404;23;20337;-91
2022/12/24 04:10:09;;;;;;;1.10;0.50;;;;;;;12.42;37.81;99011.31;6038641;23;20014;-90
2022/12/24 04:12:36;;;;;;;1.23;0.50;;;;;;;12.42;37.64;99019.34;6014709;23;20038;-91
2022/12/24 04:15:01;;;;;;;0.30;0.30;;;;;;;12.43;37.86;99014.81;6038219;23;20014;-90
2022/12/24 04:17:27;;;;;;;0.40;0.40;;;;;;;12.42;37.73;99014.00;6037465;23;20021;-90
2022/12/24 04:19:53;;;;;;;1.35;0.40;;;;;;;12.45;37.68;99007.34;6014496;23;20009;-91
2022/12/24 04:22:18;;;;;;;0.43;0.35;;;;;;;12.47;37.74;99026.69;6014557;23;20017;-90
2022/12/24 04:24:44;;;;;;;0.73;0.30;;;;;;;12.41;37.63;99023.06;6013572;23;20011;-90
2022/12/24 04:27:12;;;;;;;0.30;0.28;;;;;;;12.38;37.72;99026.22;6014388;23;20448;-91
2022/12/24 04:29:37;;;;;;;1.50;0.50;;;;;;;12.37;37.60;99021.91;6014046;23;20485;-90
2022/12/24 04:32:03;;;;;;;0.60;0.50;;;;;;;12.43;37.44;99037.03;6014428;23;20019;-91
2022/12/24 04:34:29;;;;;;;0.40;0.30;;;;;;;12.46;37.31;99033.09;6014486;23;20011;-91
2022/12/24 04:36:55;;;;;;;0.60;0.50;;;;;;;12.42;37.62;99030.06;6014601;23;20003;-91
2022/12/24 04:39:20;;;;;;;0.50;0.40;;;;;;;12.47;37.69;99048.94;6013823;23;20014;-90
2022/12/24 04:41:46;;;;;;;0.65;0.43;;;;;;;12.45;37.60;99037.63;6038378;23;20491;-90
2022/12/24 04:44:12;;;;;;;0.47;0.35;;;;;;;12.50;37.35;99048.47;6038057;23;20361;-91
2022/12/24 04:46:37;;;;;;;0.43;0.40;;;;;;;12.50;37.32;99048.47;6014517;23;20070;-90
2022/12/24 04:49:03;;;;;;;0.77;0.40;;;;;;;12.35;37.41;99032.06;6038783;23;20007;-91
2022/12/24 04:51:29;;;;;;;0.22;0.20;;;;;;;12.46;37.71;99049.97;6014040;23;20011;-91
2022/12/24 04:53:58;;;;;;;0.45;0.43;;;;;;;12.45;37.64;99061.75;6014450;23;20010;-90
2022/12/24 04:56:25;;;;;;;0.60;0.40;;;;;;;12.51;37.38;99070.72;6014179;23;20026;-91
2022/12/24 04:58:51;;;;;;;0.68;0.55;;;;;;;12.50;37.28;99077.94;6014850;23;20010;-91
2022/12/24 05:01:24;;;;;;;0.80;0.47;;;;;;;12.49;37.48;99080.88;6038111;23;20042;-90
2022/12/24 05:03:50;;;;;;;0.43;0.43;;;;;;;12.50;37.46;99069.91;6039198;23;20017;-91
2022/12/24 05:06:19;;;;;;;1.65;0.45;;;;;;;12.43;37.43;99066.53;6014648;23;20097;-91
2022/12/24 05:08:45;;;;;;;0.50;0.35;;;;;;;12.50;37.44;99077.94;6038626;23;20218;-91
2022/12/24 05:11:13;;;;;;;0.40;0.40;;;;;;;12.53;37.46;99085.50;6014126;23;20441;-91
2022/12/24 05:13:39;;;;;;;0.43;0.30;;;;;;;12.42;37.61;99072.94;6014301;23;20708;-90
2022/12/24 05:16:05;;;;;;;0.65;0.40;;;;;;;12.49;37.38;99084.34;6014744;23;20011;-90
2022/12/24 05:18:31;;;;;;;0.88;0.40;;;;;;;12.48;37.19;99085.41;6013634;23;20037;-91
2022/12/24 05:20:56;;;;;;;1.35;0.50;;;;;;;12.50;37.43;99096.69;6037476;23;20003;-91
2022/12/24 05:26:42;;;;;;;0.98;0.50;;;;;;;12.53;37.23;99098.91;6042410;23;20066;-91
2022/12/24 05:29:08;;;;;;;0.40;0.40;;;;;;;12.49;37.31;99089.72;6038102;23;20018;-90
2022/12/24 05:31:34;;;;;;;0.60;0.40;;;;;;;12.47;37.26;99089.13;6013394;23;20017;-90
2022/12/24 05:34:00;;;;;;;1.02;0.50;;;;;;;12.50;37.16;99102.06;6038047;23;20348;-91
2022/12/24 05:36:26;;;;;;;0.93;0.43;;;;;;;12.51;36.98;99109.06;6037725;23;20003;-91
2022/12/24 05:38:52;;;;;;;0.82;0.30;;;;;;;12.51;37.34;99109.06;6013596;23;20007;-91
2022/12/24 05:41:21;;;;;;;1.05;0.50;;;;;;;12.47;37.09;99113.25;6013560;23;20015;-90
2022/12/24 05:43:46;;;;;;;1.02;0.50;;;;;;;12.47;37.28;99113.25;6037760;23;20013;-91
2022/12/24 05:46:14;;;;;;;1.10;0.43;;;;;;;12.51;37.10;99113.59;6013988;23;20007;-90
2022/12/24 05:48:40;;;;;;;0.40;0.40;;;;;;;12.52;37.27;99117.91;6014244;23;20269;-90
2022/12/24 05:51:07;;;;;;;0.47;0.40;;;;;;;12.54;37.13;99122.00;6014374;23;20377;-90
2022/12/24 05:53:33;;;;;;;0.35;0.35;;;;;;;12.50;37.13;99106.59;6013556;23;20420;-90
2022/12/24 05:56:06;;;;;;;0.60;0.47;;;;;;;12.50;37.23;99112.78;6038235;23;20010;-90
2022/12/24 05:58:32;;;;;;;0.50;0.40;;;;;;;12.55;37.30;99123.63;6038046;23;20011;-90
2022/12/24 06:00:57;;;;;;;0.52;0.40;;;;;;;12.51;36.99;99127.81;6010759;23;20463;-91
2022/12/24 06:03:23;;;;;;;0.40;0.40;;;;;;;12.51;37.24;99135.84;5962258;23;20098;-91
2022/12/24 06:06:01;;;;;;;1.05;0.40;;;;;;;12.44;37.30;99135.16;5962684;23;20090;-91
2022/12/24 06:08:27;;;;;;;0.50;0.40;;;;;;;12.49;37.04;99139.81;5963891;23;20437;-90
2022/12/24 06:10:55;;;;;;;1.33;0.60;;;;;;;12.56;37.24;99162.78;5986042;23;20078;-90
2022/12/24 06:13:20;;;;;;;0.88;0.52;;;;;;;12.44;36.97;99151.22;5985570;23;20011;-90
2022/12/24 06:15:46;;;;;;;0.90;0.50;;;;;;;12.56;37.07;99167.34;5962339;23;20516;-91
2022/12/24 06:18:12;;;;;;;0.60;0.50;;;;;;;12.53;37.25;99165.91;5962245;23;20037;-91
2022/12/24 06:20:37;;;;;;;0.35;0.35;;;;;;;12.47;37.18;99166.84;5985783;23;20393;-90
2022/12/24 06:23:03;;;;;;;0.70;0.40;;;;;;;12.49;37.12;99180.03;5985504;23;20027;-91
2022/12/24 06:25:29;;;;;;;1.42;0.47;;;;;;;12.51;37.02;99184.09;5961402;23;20397;-90
2022/12/24 06:27:54;;;;;;;0.45;0.30;;;;;;;12.53;37.13;99186.53;5985548;23;20030;-90
2022/12/24 06:30:20;;;;;;;0.52;0.52;;;;;;;12.48;37.06;99184.53;5962556;23;20075;-90
2022/12/24 06:32:46;;;;;;;1.30;0.50;;;;;;;12.53;37.31;99195.38;5962123;23;20013;-90
2022/12/24 06:35:11;;;;;;;0.35;0.30;;;;;;;12.52;36.99;99201.81;5962436;23;20018;-90
2022/12/24 06:37:37;;;;;;;1.25;0.40;;;;;;;12.48;37.16;99203.31;5984964;23;20051;-90
2022/12/24 06:40:03;;;;;;;2.05;0.50;;;;;;;12.55;36.85;99221.97;5962405;23;20127;-89
2022/12/24 06:42:29;;;;;;;0.95;0.50;;;;;;;12.52;36.95;99212.53;5962680;23;20011;-91
2022/12/24 06:44:54;;;;;;;1.05;0.50;;;;;;;12.54;36.61;99220.34;5963291;23;20007;-91
2022/12/24 06:47:20;;;;;;;0.90;0.60;;;;;;;12.52;37.41;99220.56;5962116;23;20018;-90
2022/12/24 06:49:46;;;;;;;0.30;0.28;;;;;;;12.53;37.12;99224.88;5985461;23;20015;-90
2022/12/24 06:52:12;;;;;;;1.25;0.50;;;;;;;12.50;36.97;99221.84;5961859;23;20059;-90
2022/12/24 06:54:37;;;;;;;1.17;0.35;;;;;;;12.44;36.84;99215.53;5962557;23;20110;-91
2022/12/24 06:57:04;;;;;;;0.55;0.47;;;;;;;12.53;36.76;99219.50;5985674;23;20038;-90
2022/12/24 06:59:29;;;;;;;1.92;0.45;;;;;;;12.57;36.95;99236.78;5984411;23;20015;-91
2022/12/24 07:01:58;;;;;;;0.50;0.30;;;;;;;12.57;36.89;99235.94;6009412;23;20113;-90
2022/12/24 07:04:23;;;;;;;0.73;0.40;;;;;;;12.56;36.85;99248.53;6037215;23;20007;-90
2022/12/24 07:06:49;;;;;;;0.70;0.50;;;;;;;12.51;36.96;99245.72;6037216;23;20034;-91
2022/12/24 07:09:15;;;;;;;0.32;0.30;;;;;;;12.56;36.90;99251.22;6037165;23;20321;-90
2022/12/24 07:11:40;;;;;;;1.35;0.60;;;;;;;12.52;36.71;99242.00;6036603;23;20376;-91
2022/12/24 07:14:06;;;;;;;1.10;0.40;;;;;;;12.55;36.75;99257.63;6013416;23;20002;-90
2022/12/24 07:16:32;;;;;;;0.75;0.38;;;;;;;12.51;37.00;99247.59;6013699;23;20410;-90
2022/12/24 07:18:58;;;;;;;0.30;0.30;;;;;;;12.53;37.06;99250.88;6013577;23;20019;-90
2022/12/24 07:21:23;;;;;;;0.73;0.50;;;;;;;12.51;36.98;99251.09;6013096;23;20007;-91
2022/12/24 07:23:49;;;;;;;0.40;0.22;;;;;;;12.53;36.86;99254.34;6038014;23;20107;-90
2022/12/24 07:26:14;;;;;;;0.52;0.40;;;;;;;12.52;36.84;99255.41;6038874;23;20051;-90
2022/12/24 07:28:40;;;;;;;0.55;0.40;;;;;;;12.55;36.85;99271.00;6038902;23;20066;-90
2022/12/24 07:31:06;;;;;;;1.27;0.40;;;;;;;12.54;36.85;99273.94;6038774;23;20063;-90
2022/12/24 07:33:31;;;;;;;1.08;0.30;;;;;;;12.50;36.96;99270.88;6014417;23;20011;-90
2022/12/24 07:36:01;;;;;;;0.47;0.40;;;;;;;12.54;36.79;99280.13;6015231;23;20007;-90
2022/12/24 07:38:27;;;;;;;0.30;0.25;;;;;;;12.50;36.57;99270.88;6038551;23;20011;-90
2022/12/24 07:40:53;;;;;;;0.95;0.35;;;;;;;12.53;36.89;99283.03;6015273;23;20010;-91
2022/12/24 07:43:18;;;;;;;0.45;0.30;;;;;;;12.61;36.72;99289.91;6014542;23;20334;-90
2022/12/24 07:45:44;;;;;;;0.50;0.40;;;;;;;12.56;36.71;99294.09;6014743;23;20057;-90
2022/12/24 07:48:10;;;;;;;1.10;0.40;;;;;;;12.56;36.99;99294.09;6038598;23;20034;-90
2022/12/24 07:50:35;;;;;;;0.60;0.40;;;;;;;12.62;37.02;99296.91;6038540;23;20007;-91
2022/12/24 07:53:01;;;;;;;1.52;0.55;;;;;;;12.57;36.73;99295.75;6038425;23;20094;-89
2022/12/24 07:55:26;;;;;;;1.42;0.40;;;;;;;12.58;36.67;99304.59;6014313;23;20458;-90
2022/12/24 07:57:52;;;;;;;0.40;0.40;;;;;;;12.61;36.56;99311.34;6038326;23;19999;-90
2022/12/24 08:00:18;;;;;;;0.60;0.30;;;;;;;12.54;36.70;99306.09;6062078;23;20011;-90
2022/12/24 08:02:44;;;;;;;0.40;0.40;;;;;;;12.58;36.53;99316.13;6038034;23;20075;-90
2022/12/24 08:05:09;;;;;;;0.57;0.40;;;;;;;12.60;36.89;99329.31;6014834;23;20082;-90
2022/12/24 08:07:35;;;;;;;0.73;0.30;;;;;;;12.56;36.57;99318.22;6061999;23;20025;-90
2022/12/24 08:10:01;;;;;;;0.57;0.40;;;;;;;12.62;36.65;99339.81;6038167;23;20082;-90
2022/12/24 08:12:26;;;;;;;1.08;0.43;;;;;;;12.59;36.71;99335.72;6014921;23;20018;-90
2022/12/24 08:14:52;;;;;;;1.08;0.35;;;;;;;12.56;36.81;99334.31;6038485;23;20073;-90
2022/12/24 08:17:21;;;;;;;0.70;0.40;;;;;;;12.62;36.59;99339.81;6038669;23;20014;-90
2022/12/24 08:19:46;;;;;;;1.00;0.50;;;;;;;12.56;36.59;99345.03;6014489;23;20007;-90
2022/12/24 08:22:12;;;;;;;0.70;0.30;;;;;;;12.59;36.45;99343.78;6014501;23;20010;-90
2022/12/24 08:24:38;;;;;;;0.60;0.40;;;;;;;12.60;36.79;99353.44;6014631;23;20014;-90
2022/12/24 08:27:03;;;;;;;0.40;0.40;;;;;;;12.60;36.50;99353.44;6014801;23;20003;-90
2022/12/24 08:29:29;;;;;;;0.43;0.40;;;;;;;12.61;36.68;99362.28;6014247;23;20102;-90
2022/12/24 08:31:55;;;;;;;1.00;0.43;;;;;;;12.56;36.85;99353.06;6014693;23;20011;-90
2022/12/24 08:34:20;;;;;;;1.15;0.43;;;;;;;12.58;36.63;99367.06;6015000;23;20007;-90
2022/12/24 08:36:46;;;;;;;0.90;0.50;;;;;;;12.61;36.78;99370.31;6014697;23;20015;-90
2022/12/24 08:39:12;;;;;;;0.85;0.40;;;;;;;12.61;36.67;99370.31;6015118;23;20108;-90
2022/12/24 08:41:39;;;;;;;0.30;0.30;;;;;;;12.56;36.55;99363.78;6015051;23;20045;-90
2022/12/24 08:44:04;;;;;;;0.43;0.43;;;;;;;12.56;36.75;99373.69;6014984;23;20486;-90
2022/12/24 08:46:30;;;;;;;0.65;0.50;;;;;;;12.59;36.48;99378.63;6014477;23;20007;-90
2022/12/24 08:48:58;;;;;;;1.15;0.40;;;;;;;12.59;36.56;99382.09;6015023;23;20021;-90
2022/12/24 08:51:24;;;;;;;0.70;0.47;;;;;;;12.51;36.61;99376.22;6038011;23;20078;-90
2022/12/24 08:53:50;;;;;;;1.30;0.30;;;;;;;12.52;36.86;99389.41;6062515;23;20314;-90
2022/12/24 08:56:16;;;;;;;1.10;0.40;;;;;;;12.59;36.63;99394.69;6014695;23;20014;-90
2022/12/24 08:58:41;;;;;;;1.15;0.45;;;;;;;12.61;36.62;99402.47;6014140;23;20310;-90
2022/12/24 09:01:14;;;;;;;1.25;0.57;;;;;;;12.35;36.75;99362.41;6011818;23;20015;-90
2022/12/24 09:03:40;;;;;;;0.40;0.40;;;;;;;12.41;36.82;99360.69;5962421;23;20083;-90
2022/12/24 09:06:06;;;;;;;1.02;0.45;;;;;;;12.56;36.74;99406.66;5961600;23;20019;-90
2022/12/24 09:08:32;;;;;;;0.70;0.52;;;;;;;12.58;36.71;99404.56;5962056;23;20569;-90
2022/12/24 09:11:08;;;;;;;0.65;0.40;;;;;;;12.56;36.83;99406.66;5961729;23;20050;-90
2022/12/24 09:13:33;;;;;;;0.80;0.60;;;;;;;12.51;36.67;99398.47;5985690;23;20007;-90
2022/12/24 09:15:59;;;;;;;0.90;0.50;;;;;;;12.53;36.91;99392.91;5963281;23;20065;-90
2022/12/24 09:18:25;;;;;;;0.50;0.40;;;;;;;12.55;36.74;99410.38;5985973;23;20492;-90
2022/12/24 09:20:50;;;;;;;1.35;0.50;;;;;;;12.50;36.85;99409.44;5962570;23;20067;-90
2022/12/24 09:23:16;;;;;;;0.75;0.45;;;;;;;12.40;36.68;99391.22;5962172;23;20031;-90
2022/12/24 09:25:42;;;;;;;1.38;0.45;;;;;;;12.56;36.67;99422.75;5985858;23;20015;-91
2022/12/24 09:28:08;;;;;;;0.82;0.47;;;;;;;12.51;36.68;99413.75;5963050;23;20062;-90
2022/12/24 09:30:37;;;;;;;1.30;0.43;;;;;;;12.56;36.89;99422.75;5963102;23;20011;-90
2022/12/24 09:33:03;;;;;;;2.30;0.50;;;;;;;12.51;36.67;99425.28;5962959;23;20388;-90
2022/12/24 09:35:29;;;;;;;0.65;0.50;;;;;;;12.52;36.68;99426.94;5985540;23;20075;-90
2022/12/24 09:38:01;;;;;;;1.13;0.40;;;;;;;12.53;36.82;99439.28;5963120;23;20003;-90
2022/12/24 09:40:38;;;;;;;0.68;0.43;;;;;;;12.51;36.60;99444.03;5965241;23;20106;-90
2022/12/24 09:43:21;;;;;;;1.00;0.40;;;;;;;12.35;37.08;99425.91;5962532;23;20018;-90
2022/12/24 09:46:07;;;;;;;0.50;0.35;;;;;;;12.54;36.81;99459.69;6009258;23;20017;-90
2022/12/24 09:48:38;;;;;;;0.30;0.30;;;;;;;12.54;36.73;99456.19;6008078;23;20457;-91
2022/12/24 09:51:09;;;;;;;0.50;0.50;;;;;;;12.38;36.73;99436.16;5962586;23;20034;-90
2022/12/24 09:53:41;;;;;;;1.05;0.50;;;;;;;12.55;37.07;99472.03;5986979;23;20139;-90
2022/12/24 09:56:15;;;;;;;0.73;0.50;;;;;;;12.52;36.92;99472.50;6035153;23;20014;-90
2022/12/24 09:58:43;;;;;;;2.00;0.38;;;;;;;12.27;36.89;99444.94;5962835;23;20018;-90
2022/12/24 10:01:14;;;;;;;1.02;0.40;;;;;;;12.34;37.04;99451.03;5986574;23;20015;-90
2022/12/24 10:03:41;;;;;;;0.60;0.40;;;;;;;12.31;36.80;99449.59;5964389;23;20110;-90
2022/12/24 10:06:33;;;;;;;0.63;0.40;;;;;;;12.55;36.69;99489.97;5962887;23;20047;-90
2022/12/24 10:09:05;;;;;;;0.45;0.30;;;;;;;12.53;37.10;99503.59;5986425;23;20022;-90
2022/12/24 10:11:55;;;;;;;1.38;0.52;;;;;;;12.39;36.67;99475.31;5985878;23;20003;-91
2022/12/24 10:14:32;;;;;;;0.50;0.40;;;;;;;12.52;37.10;99501.13;5986575;23;20496;-90
2022/12/24 10:17:08;;;;;;;1.15;0.50;;;;;;;12.50;37.05;99508.59;5986657;23;20015;-90
2022/12/24 10:19:58;;;;;;;0.93;0.60;;;;;;;12.42;36.93;99501.66;5987056;23;20413;-90
2022/12/24 10:22:47;;;;;;;1.13;0.35;;;;;;;12.46;37.10;99518.13;5986940;23;20015;-90
2022/12/24 10:25:44;;;;;;;0.52;0.40;;;;;;;12.46;36.95;99518.94;5989030;23;20017;-90
2022/12/24 10:28:18;;;;;;;1.55;0.40;;;;;;;12.50;36.98;99530.84;5989604;23;20401;-91
2022/12/24 10:30:47;;;;;;;1.20;0.30;;;;;;;12.43;36.97;99524.72;5963263;23;20007;-90
2022/12/24 10:33:35;;;;;;;0.30;0.30;;;;;;;12.46;36.98;99531.53;5964001;23;20018;-91
2022/12/24 10:36:00;;;;;;;0.73;0.45;;;;;;;12.44;37.08;99526.38;5964625;23;20011;-91
2022/12/24 10:38:26;;;;;;;0.45;0.43;;;;;;;12.50;37.08;99540.75;5962739;23;20311;-90
2022/12/24 10:40:53;;;;;;;0.90;0.40;;;;;;;12.48;37.30;99543.66;5986011;23;20512;-89
2022/12/24 10:43:23;;;;;;;0.70;0.43;;;;;;;12.47;36.92;99539.34;5962467;23;20007;-90
2022/12/24 10:46:29;;;;;;;0.70;0.60;;;;;;;12.50;37.11;99543.44;6009013;23;20014;-90
2022/12/24 10:49:00;;;;;;;0.73;0.40;;;;;;;12.42;37.28;99539.19;6031509;23;20011;-90
2022/12/24 10:51:47;;;;;;;0.70;0.50;;;;;;;12.51;37.22;99551.25;5961605;23;20357;-90
2022/12/24 10:54:14;;;;;;;0.30;0.28;;;;;;;12.44;37.14;99549.69;6034257;23;20464;-90
2022/12/24 10:56:44;;;;;;;1.58;0.40;;;;;;;12.40;37.18;99546.63;5986734;23;20012;-90
2022/12/24 10:59:29;;;;;;;0.50;0.40;;;;;;;12.46;37.00;99561.81;5988260;23;20274;-90
2022/12/24 11:01:56;;;;;;;0.40;0.40;;;;;;;12.47;37.33;99566.13;6026102;23;20019;-90
2022/12/24 11:04:27;;;;;;;0.45;0.40;;;;;;;12.43;37.36;99578.31;6015677;23;20046;-90
2022/12/24 11:06:56;;;;;;;2.40;0.45;;;;;;;12.44;37.13;99581.84;6015628;23;20006;-90
2022/12/24 11:09:30;;;;;;;1.20;0.43;;;;;;;12.39;37.19;99566.41;6038594;23;20322;-89
2022/12/24 11:11:59;;;;;;;0.30;0.30;;;;;;;12.47;37.06;99584.91;6040170;23;20027;-90
2022/12/24 11:14:24;;;;;;;2.03;0.45;;;;;;;12.41;37.34;99575.03;6016074;23;20245;-90
2022/12/24 11:16:52;;;;;;;0.30;0.30;;;;;;;12.35;36.97;99566.03;6014993;23;20003;-90
2022/12/24 11:19:31;;;;;;;0.45;0.30;;;;;;;12.40;37.23;99579.59;6014408;23;20069;-90
2022/12/24 11:22:07;;;;;;;0.38;0.30;;;;;;;12.40;37.26;99579.59;6015825;23;20542;-89
2022/12/24 11:24:34;;;;;;;0.88;0.40;;;;;;;12.36;37.05;99585.59;6014646;23;20014;-90
2022/12/24 11:27:26;;;;;;;0.95;0.60;;;;;;;12.45;37.29;99599.53;6014663;23;20318;-90
2022/12/24 11:29:51;;;;;;;1.30;0.40;;;;;;;12.38;36.74;99586.19;6038764;23;20096;-90
2022/12/24 11:32:21;;;;;;;0.40;0.40;;;;;;;12.40;37.47;99606.38;6038631;23;20411;-89
2022/12/24 11:34:46;;;;;;;1.15;0.50;;;;;;;12.37;37.24;99601.47;6015016;23;20010;-89
2022/12/24 11:37:22;;;;;;;1.20;0.50;;;;;;;12.44;37.06;99612.13;6015091;23;20095;-90
2022/12/24 11:39:52;;;;;;;1.25;0.50;;;;;;;12.46;37.20;99618.09;6038631;23;20042;-89
2022/12/24 11:42:35;;;;;;;0.40;0.40;;;;;;;12.40;37.34;99600.22;6038424;23;20384;-90
2022/12/24 11:45:03;;;;;;;0.50;0.50;;;;;;;12.40;37.41;99609.06;6014956;23;20436;-90
2022/12/24 11:47:37;;;;;;;0.93;0.47;;;;;;;12.38;37.17;99610.31;6014747;23;20021;-90
2022/12/24 11:50:31;;;;;;;0.50;0.40;;;;;;;12.43;37.33;99615.84;6015581;23;20352;-90